Time;durP1;ratioP1;P1;durP2;ratioP2;P2;SDS_P1;SDS_P2;PMS_P1;PMS_P2;Temp;Humidity;BMP_temperature;BMP_pressure;BME280_temperature;BME280_humidity;BME280_pressure;Samples;Min_cycle;Max_cycle;Signal;HPM_P1;HPM_P2
2021/05/03 00:01:11;;;;;;;10.97;2.70;;;5.50;82.40;;;;;;5030627;28;20159;-62
2021/05/03 00:03:36;;;;;;;6.23;2.57;;;5.50;82.70;;;;;;5028527;28;20072;-61
2021/05/03 00:06:02;;;;;;;8.33;2.57;;;5.60;82.90;;;;;;5031031;28;20098;-62
2021/05/03 00:08:28;;;;;;;6.37;2.20;;;5.60;82.90;;;;;;5031087;28;20516;-63
2021/05/03 00:10:53;;;;;;;9.77;2.60;;;5.60;83.00;;;;;;5029927;28;20037;-62
2021/05/03 00:13:20;;;;;;;7.83;2.20;;;5.60;82.90;;;;;;5030139;28;20551;-62
2021/05/03 00:15:46;;;;;;;7.37;2.30;;;5.70;82.80;;;;;;5029431;28;20528;-62
2021/05/03 00:18:12;;;;;;;8.37;2.37;;;5.70;82.70;;;;;;5032453;28;20041;-61
2021/05/03 00:20:37;;;;;;;8.40;2.50;;;5.70;82.90;;;;;;5033546;28;20049;-62
2021/05/03 00:23:03;;;;;;;6.77;2.57;;;5.70;83.00;;;;;;5033407;28;20049;-62
2021/05/03 00:25:29;;;;;;;9.43;2.80;;;5.70;83.00;;;;;;5034417;28;20063;-63
2021/05/03 00:27:55;;;;;;;11.07;2.60;;;5.70;83.20;;;;;;5034343;28;20140;-62
2021/05/03 00:30:20;;;;;;;10.03;2.43;;;5.80;83.30;;;;;;5033391;28;20475;-62
2021/05/03 00:32:46;;;;;;;7.23;2.40;;;5.80;83.20;;;;;;5033826;28;20037;-62
2021/05/03 00:35:13;;;;;;;6.70;2.20;;;5.80;83.00;;;;;;5032906;28;20037;-62
2021/05/03 00:37:39;;;;;;;7.80;2.37;;;5.80;83.00;;;;;;5034011;28;20040;-63
2021/05/03 00:40:06;;;;;;;7.70;2.40;;;5.80;83.00;;;;;;5041131;28;20036;-63
2021/05/03 00:42:32;;;;;;;5.80;2.20;;;5.80;83.00;;;;;;5053653;28;20489;-62
2021/05/03 00:45:11;;;;;;;5.83;2.30;;;5.80;83.00;;;;;;5053248;28;20044;-62
2021/05/03 00:47:38;;;;;;;4.93;2.10;;;5.80;82.90;;;;;;5053612;28;20036;-62
2021/05/03 00:50:06;;;;;;;9.53;2.90;;;5.80;83.00;;;;;;5052145;28;20040;-62
2021/05/03 00:52:32;;;;;;;7.67;2.50;;;5.70;82.80;;;;;;5051967;28;20401;-61
2021/05/03 00:54:58;;;;;;;7.17;2.60;;;5.70;83.00;;;;;;5053066;28;20113;-63
2021/05/03 00:57:23;;;;;;;7.33;2.43;;;5.60;83.00;;;;;;5053729;28;20568;-63
2021/05/03 00:59:50;;;;;;;7.53;2.17;;;5.60;83.00;;;;;;5050541;28;20040;-62
2021/05/03 01:02:15;;;;;;;5.73;2.30;;;5.60;83.00;;;;;;5053796;28;20108;-62
2021/05/03 01:04:41;;;;;;;5.07;2.33;;;5.50;83.20;;;;;;5052968;28;20040;-62
2021/05/03 01:07:07;;;;;;;12.60;2.50;;;5.40;83.20;;;;;;5053188;28;20532;-62
2021/05/03 01:09:34;;;;;;;9.10;3.23;;;5.40;83.20;;;;;;5052980;28;20045;-62
2021/05/03 01:12:02;;;;;;;8.10;2.90;;;5.30;83.30;;;;;;5051805;28;20120;-62
2021/05/03 01:14:28;;;;;;;5.23;2.50;;;5.30;83.50;;;;;;5052816;28;20132;-62
2021/05/03 01:16:54;;;;;;;8.83;2.80;;;5.20;83.60;;;;;;5053547;28;20041;-63
2021/05/03 01:19:21;;;;;;;5.80;2.40;;;5.20;83.70;;;;;;5050243;28;20033;-63
2021/05/03 01:21:48;;;;;;;7.17;2.50;;;5.20;83.80;;;;;;5040488;28;20037;-62
2021/05/03 01:24:14;;;;;;;7.33;2.30;;;5.20;83.80;;;;;;5041703;28;20091;-62
2021/05/03 01:26:40;;;;;;;10.30;2.63;;;5.10;84.00;;;;;;5043697;28;20033;-63
2021/05/03 01:29:05;;;;;;;7.53;2.50;;;5.10;83.90;;;;;;5041992;28;20045;-62
2021/05/03 01:31:31;;;;;;;6.97;2.60;;;5.10;83.90;;;;;;5031764;28;20040;-62
2021/05/03 01:34:03;;;;;;;7.17;2.47;;;5.10;83.90;;;;;;5033961;28;20387;-61
2021/05/03 01:36:29;;;;;;;7.03;2.70;;;5.10;84.10;;;;;;5036542;28;20112;-61
2021/05/03 01:38:54;;;;;;;9.43;3.33;;;5.00;84.20;;;;;;5035914;28;20076;-62
2021/05/03 01:41:20;;;;;;;8.37;3.30;;;5.00;84.40;;;;;;5031794;28;20041;-62
2021/05/03 01:43:45;;;;;;;15.03;3.87;;;5.00;84.30;;;;;;5031963;28;20033;-61
2021/05/03 01:46:11;;;;;;;11.57;3.80;;;5.00;84.40;;;;;;5032945;28;20397;-63
2021/05/03 01:48:37;;;;;;;8.97;3.50;;;5.00;84.60;;;;;;5032003;28;20083;-62
2021/05/03 01:51:06;;;;;;;8.43;4.10;;;5.00;85.00;;;;;;5030876;28;20039;-61
2021/05/03 01:53:32;;;;;;;7.77;3.90;;;5.10;85.30;;;;;;5031998;28;20045;-63
2021/05/03 01:55:58;;;;;;;10.57;4.00;;;5.10;85.10;;;;;;5031840;28;20152;-61
2021/05/03 01:58:25;;;;;;;8.77;3.93;;;5.20;84.80;;;;;;5030856;28;20033;-61
2021/05/03 02:00:51;;;;;;;9.27;3.93;;;5.20;84.80;;;;;;5032606;28;20574;-62
2021/05/03 02:03:19;;;;;;;7.03;3.73;;;5.10;85.00;;;;;;5031367;28;20869;-61
2021/05/03 02:05:45;;;;;;;10.27;3.90;;;5.20;85.30;;;;;;5032485;28;20392;-62
2021/05/03 02:08:11;;;;;;;9.07;3.40;;;5.30;85.40;;;;;;5030737;28;20117;-62
2021/05/03 02:10:37;;;;;;;8.50;3.43;;;5.30;85.30;;;;;;5028531;28;20044;-62
2021/05/03 02:13:03;;;;;;;9.60;3.70;;;5.30;85.60;;;;;;5031725;28;20068;-62
2021/05/03 02:15:30;;;;;;;9.27;3.27;;;5.40;85.40;;;;;;5030610;28;20037;-62
2021/05/03 02:17:56;;;;;;;9.00;3.23;;;5.50;85.30;;;;;;5032381;28;20029;-62
2021/05/03 02:20:22;;;;;;;8.00;3.40;;;5.50;85.10;;;;;;5029690;28;20074;-61
2021/05/03 02:22:48;;;;;;;6.97;3.70;;;5.60;85.20;;;;;;5031659;28;20068;-62
2021/05/03 02:25:14;;;;;;;7.97;3.67;;;5.60;85.00;;;;;;5031980;28;20034;-62
2021/05/03 02:27:41;;;;;;;7.43;3.00;;;5.50;84.90;;;;;;5031594;28;20044;-63
2021/05/03 02:30:09;;;;;;;7.67;3.27;;;5.60;85.00;;;;;;5031233;28;20533;-61
2021/05/03 02:32:36;;;;;;;9.53;3.50;;;5.60;84.80;;;;;;5030316;28;20482;-61
2021/05/03 02:35:10;;;;;;;7.27;3.03;;;5.60;84.60;;;;;;5031301;28;20037;-62
2021/05/03 02:37:37;;;;;;;6.80;3.03;;;5.50;84.70;;;;;;5032002;28;20044;-61
2021/05/03 02:40:04;;;;;;;8.27;3.00;;;5.50;84.80;;;;;;5030140;28;20057;-61
2021/05/03 02:42:30;;;;;;;7.63;3.10;;;5.50;84.90;;;;;;5031843;28;20038;-62
2021/05/03 02:44:56;;;;;;;8.77;2.90;;;5.50;85.00;;;;;;5030675;28;20784;-62
2021/05/03 02:47:22;;;;;;;8.03;2.93;;;5.50;84.90;;;;;;5014083;28;20041;-61
2021/05/03 02:49:47;;;;;;;8.53;2.83;;;5.50;84.60;;;;;;5031028;28;20136;-62
2021/05/03 02:52:13;;;;;;;6.63;3.00;;;5.50;84.60;;;;;;5031283;28;20041;-61
2021/05/03 02:54:39;;;;;;;8.53;2.83;;;5.50;84.50;;;;;;5031019;28;20064;-62
2021/05/03 02:57:04;;;;;;;9.90;3.00;;;5.40;84.50;;;;;;5029814;28;20037;-61
2021/05/03 02:59:30;;;;;;;7.67;3.00;;;5.40;84.40;;;;;;4996918;28;20563;-62
2021/05/03 03:01:56;;;;;;;7.83;3.37;;;5.30;84.50;;;;;;5031716;28;20440;-62
2021/05/03 03:04:22;;;;;;;8.03;3.00;;;5.20;84.50;;;;;;5030426;28;20117;-62
2021/05/03 03:06:47;;;;;;;9.17;3.17;;;5.20;84.40;;;;;;5031555;28;20041;-61
2021/05/03 03:09:14;;;;;;;10.60;2.90;;;5.10;84.70;;;;;;5029195;28;20056;-61
2021/05/03 03:11:41;;;;;;;8.77;3.10;;;5.00;84.70;;;;;;5031100;28;20029;-62
2021/05/03 03:14:07;;;;;;;7.53;3.23;;;5.00;84.80;;;;;;5029419;28;20041;-62
2021/05/03 03:16:34;;;;;;;7.87;3.07;;;4.90;84.80;;;;;;5030968;28;20042;-61
2021/05/03 03:19:00;;;;;;;7.50;3.10;;;4.90;84.90;;;;;;5029824;28;20048;-62
2021/05/03 03:21:26;;;;;;;7.77;2.90;;;4.80;84.90;;;;;;5049913;28;20045;-62
2021/05/03 03:23:52;;;;;;;7.20;2.87;;;4.80;85.10;;;;;;5049981;28;20029;-62
2021/05/03 03:26:18;;;;;;;7.80;2.83;;;4.80;85.20;;;;;;5050064;28;20052;-62
2021/05/03 03:28:44;;;;;;;8.63;3.50;;;4.80;85.40;;;;;;5050623;28;20120;-61
2021/05/03 03:31:10;;;;;;;8.57;3.30;;;4.70;85.40;;;;;;5050813;28;20029;-63
2021/05/03 03:33:36;;;;;;;6.97;3.70;;;4.70;85.50;;;;;;5049099;28;20037;-61
2021/05/03 03:36:02;;;;;;;10.87;4.07;;;4.70;85.70;;;;;;5050751;28;20033;-62
2021/05/03 03:38:28;;;;;;;10.13;4.33;;;4.70;85.80;;;;;;5049766;28;20040;-62
2021/05/03 03:40:54;;;;;;;8.67;4.40;;;4.70;85.90;;;;;;5049899;28;20067;-61
2021/05/03 03:43:20;;;;;;;14.60;4.53;;;4.70;86.00;;;;;;5048845;28;20486;-62
2021/05/03 03:45:45;;;;;;;9.47;4.63;;;4.70;86.10;;;;;;5051593;28;20033;-64
2021/05/03 03:48:11;;;;;;;9.93;4.43;;;4.70;86.00;;;;;;5050057;28;20102;-62
2021/05/03 03:50:37;;;;;;;9.30;4.40;;;4.70;86.10;;;;;;5051166;28;20039;-62
2021/05/03 03:53:02;;;;;;;8.60;4.30;;;4.70;86.20;;;;;;5054408;28;20568;-62
2021/05/03 03:55:28;;;;;;;8.47;4.60;;;4.60;86.20;;;;;;5054318;28;20400;-63
2021/05/03 03:57:54;;;;;;;11.10;4.43;;;4.60;86.30;;;;;;5037924;28;20037;-66
2021/05/03 04:00:21;;;;;;;9.90;4.37;;;4.60;86.50;;;;;;5054019;28;20044;-61
2021/05/03 04:02:47;;;;;;;9.90;4.80;;;4.60;86.60;;;;;;5054951;28;20037;-61
2021/05/03 04:12:55;;;;;;;9.60;3.90;;;4.60;86.80;;;;;;5053752;28;20037;-62
2021/05/03 04:23:57;;;;;;;10.63;4.27;;;4.60;87.00;;;;;;5036552;28;20428;-61
2021/05/03 04:26:25;;;;;;;7.73;4.10;;;4.60;87.10;;;;;;5019867;28;20041;-61
2021/05/03 04:28:52;;;;;;;9.87;3.67;;;4.70;87.20;;;;;;5032500;28;20766;-62
2021/05/03 04:31:19;;;;;;;10.27;4.07;;;4.70;87.40;;;;;;5033481;28;20040;-62
2021/05/03 04:33:45;;;;;;;8.23;3.63;;;4.80;87.20;;;;;;5032699;28;20470;-62
2021/05/03 04:36:11;;;;;;;7.10;3.80;;;4.80;87.40;;;;;;5034349;28;20492;-62
2021/05/03 04:38:38;;;;;;;8.90;3.87;;;4.90;87.50;;;;;;5033364;28;20037;-62
2021/05/03 04:41:03;;;;;;;7.10;3.40;;;5.00;87.30;;;;;;5043856;28;20091;-62
2021/05/03 04:43:29;;;;;;;6.40;3.27;;;5.10;87.60;;;;;;5052798;28;20041;-61
2021/05/03 04:45:55;;;;;;;7.97;3.37;;;5.10;86.90;;;;;;5053065;28;20037;-61
2021/05/03 04:48:21;;;;;;;8.90;3.37;;;5.10;87.00;;;;;;5053469;28;20037;-62
2021/05/03 04:50:47;;;;;;;7.43;3.50;;;5.30;87.50;;;;;;5052898;28;20132;-61
2021/05/03 04:53:12;;;;;;;8.90;3.00;;;5.40;88.00;;;;;;5052732;28;20045;-62
2021/05/03 04:55:38;;;;;;;7.97;3.13;;;5.60;87.80;;;;;;5053300;28;20040;-60
2021/05/03 04:58:04;;;;;;;6.37;3.00;;;5.80;87.00;;;;;;5040936;28;20095;-61
2021/05/03 05:00:29;;;;;;;5.57;2.63;;;5.90;87.00;;;;;;5041639;28;20037;-62
2021/05/03 05:02:55;;;;;;;7.63;2.83;;;6.10;87.20;;;;;;5040228;28;20698;-61
2021/05/03 05:05:21;;;;;;;5.60;2.50;;;6.30;86.40;;;;;;5043795;28;20408;-62
2021/05/03 05:07:47;;;;;;;4.60;2.10;;;6.40;85.60;;;;;;5044768;28;20037;-62
2021/05/03 05:10:13;;;;;;;6.70;2.20;;;6.50;86.00;;;;;;5043917;28;20528;-62
2021/05/03 05:12:39;;;;;;;9.20;2.50;;;6.80;86.90;;;;;;5041199;28;20042;-62
2021/05/03 05:15:06;;;;;;;6.07;2.43;;;7.10;87.00;;;;;;5040346;28;20044;-62
2021/05/03 05:17:32;;;;;;;6.60;2.60;;;7.30;86.10;;;;;;5043629;28;20036;-63
2021/05/03 05:19:59;;;;;;;5.23;2.27;;;7.50;85.50;;;;;;5044034;28;20106;-62
2021/05/03 05:22:25;;;;;;;7.57;2.67;;;7.90;86.60;;;;;;5043574;28;20060;-62
2021/05/03 05:24:51;;;;;;;6.03;2.43;;;8.20;86.00;;;;;;5040158;28;20041;-63
2021/05/03 05:27:16;;;;;;;6.73;2.27;;;8.60;85.60;;;;;;5040698;28;20040;-63
2021/05/03 05:29:42;;;;;;;5.53;2.47;;;9.10;86.20;;;;;;5042844;28;20041;-64
2021/05/03 05:32:08;;;;;;;6.97;2.45;;;9.60;85.60;;;;;;5044066;28;20033;-62
2021/05/03 05:34:33;;;;;;;7.63;2.50;;;10.00;84.70;;;;;;5043296;28;20037;-63
2021/05/03 05:36:59;;;;;;;6.78;2.45;;;10.00;80.70;;;;;;5038797;28;20033;-63
2021/05/03 05:39:25;;;;;;;6.47;2.80;;;9.80;78.90;;;;;;5040413;28;20080;-63
2021/05/03 05:41:51;;;;;;;4.15;1.90;;;9.90;81.60;;;;;;5042140;28;20042;-62
2021/05/03 05:44:16;;;;;;;7.00;2.30;;;10.60;84.90;;;;;;5043083;28;20536;-61
2021/05/03 05:46:44;;;;;;;6.53;2.05;;;11.90;84.90;;;;;;5043900;28;20573;-63
2021/05/03 05:49:10;;;;;;;7.50;2.38;;;12.40;78.20;;;;;;5031039;28;20416;-63
2021/05/03 05:51:38;;;;;;;5.60;2.20;;;12.70;80.00;;;;;;5041609;28;20088;-62
2021/05/03 05:54:04;;;;;;;4.60;2.05;;;13.60;79.60;;;;;;5040042;28;20053;-62
2021/05/03 05:56:30;;;;;;;4.00;1.83;;;14.00;74.20;;;;;;5043667;28;20056;-61
2021/05/03 05:58:55;;;;;;;5.10;1.77;;;14.50;73.90;;;;;;5043534;28;20041;-62
2021/05/03 06:01:22;;;;;;;5.13;2.10;;;15.50;74.90;;;;;;5041508;28;20532;-61
2021/05/03 06:03:48;;;;;;;4.25;1.90;;;15.60;68.10;;;;;;5037985;28;20079;-62
2021/05/03 06:06:14;;;;;;;5.35;1.80;;;14.90;62.70;;;;;;5040448;28;20029;-62
2021/05/03 06:08:39;;;;;;;5.45;2.00;;;13.90;62.60;;;;;;5043385;28;20114;-63
2021/05/03 06:11:05;;;;;;;4.10;1.92;;;13.10;62.40;;;;;;5043181;28;20048;-62
2021/05/03 06:13:31;;;;;;;4.57;2.00;;;12.30;62.80;;;;;;5041144;28;20505;-61
2021/05/03 06:15:56;;;;;;;6.20;2.30;;;11.40;63.40;;;;;;5039736;28;20136;-61
2021/05/03 06:18:22;;;;;;;5.20;2.33;;;10.70;64.30;;;;;;5040343;28;20048;-62
2021/05/03 06:20:48;;;;;;;7.57;2.35;;;10.20;65.80;;;;;;5041244;28;20875;-62
2021/05/03 06:23:14;;;;;;;7.93;2.40;;;10.40;71.80;;;;;;5041131;28;20528;-62
2021/05/03 06:25:41;;;;;;;4.63;1.83;;;12.30;78.70;;;;;;5040618;28;20563;-61
2021/05/03 06:28:07;;;;;;;4.70;1.90;;;14.60;76.30;;;;;;5039554;28;20196;-62
2021/05/03 06:30:35;;;;;;;3.50;2.05;;;15.80;67.00;;;;;;5039114;28;20049;-62
2021/05/03 06:33:01;;;;;;;4.18;1.85;;;16.10;61.90;;;;;;5039456;28;20481;-63
2021/05/03 06:35:27;;;;;;;4.72;2.00;;;15.10;58.20;;;;;;5025998;28;20067;-62
2021/05/03 06:37:52;;;;;;;6.57;2.00;;;14.10;58.90;;;;;;5031066;28;20033;-61
2021/05/03 06:40:19;;;;;;;5.28;2.00;;;13.20;59.10;;;;;;5030196;28;20044;-61
2021/05/03 06:42:48;;;;;;;6.55;2.10;;;13.10;64.30;;;;;;5030233;28;20049;-62
2021/05/03 06:45:18;;;;;;;4.15;1.90;;;14.80;68.10;;;;;;5030648;28;20044;-61
2021/05/03 06:47:45;;;;;;;4.88;1.90;;;16.60;64.10;;;;;;5049732;28;20405;-62
2021/05/03 06:50:12;;;;;;;3.92;1.55;;;18.00;62.70;;;;;;5050549;28;20123;-62
2021/05/03 06:52:42;;;;;;;4.80;1.73;;;19.50;60.50;;;;;;5036464;28;20057;-62
2021/05/03 06:55:08;;;;;;;5.20;1.80;;;21.10;56.00;;;;;;5029474;28;20038;-62
2021/05/03 06:57:34;;;;;;;3.38;1.55;;;21.50;51.30;;;;;;5030822;28;20448;-62
2021/05/03 07:00:00;;;;;;;4.03;1.60;;;22.30;52.10;;;;;;5030933;28;20057;-62
2021/05/03 07:02:26;;;;;;;4.60;1.60;;;22.20;45.50;;;;;;5030751;28;20043;-62
2021/05/03 07:04:52;;;;;;;2.97;1.40;;;21.90;45.50;;;;;;5030728;28;20456;-62
2021/05/03 07:07:18;;;;;;;3.72;1.65;;;21.60;44.60;;;;;;5031169;28;20529;-62
2021/05/03 07:09:46;;;;;;;5.40;1.60;;;20.60;42.30;;;;;;5030564;28;20091;-62
2021/05/03 07:12:14;;;;;;;3.40;1.70;;;19.30;42.50;;;;;;5027372;28;20030;-62
2021/05/03 07:14:40;;;;;;;4.00;1.45;;;17.90;43.50;;;;;;5018706;28;20044;-61
2021/05/03 07:17:06;;;;;;;5.80;1.50;;;17.80;46.40;;;;;;5017409;28;20455;-61
2021/05/03 07:19:33;;;;;;;5.22;1.50;;;17.70;46.50;;;;;;5024434;28;20049;-62
2021/05/03 07:22:04;;;;;;;5.35;1.48;;;17.80;47.30;;;;;;5026565;28;20095;-62
2021/05/03 07:24:31;;;;;;;3.15;1.30;;;19.30;47.50;;;;;;5030173;28;20033;-62
2021/05/03 07:26:57;;;;;;;3.22;1.23;;;20.10;44.60;;;;;;5027431;28;20045;-62
2021/05/03 07:29:23;;;;;;;5.28;1.40;;;19.90;42.90;;;;;;5029244;28;20044;-62
2021/05/03 07:31:49;;;;;;;2.50;1.40;;;19.90;42.90;;;;;;5030029;28;20040;-62
2021/05/03 07:34:15;;;;;;;4.82;1.23;;;20.60;44.10;;;;;;5035927;28;20052;-61
2021/05/03 07:36:41;;;;;;;4.22;1.40;;;20.40;40.50;;;;;;5038456;28;20064;-62
2021/05/03 07:39:07;;;;;;;3.50;1.20;;;19.60;39.80;;;;;;5039074;28;20075;-61
2021/05/03 07:41:34;;;;;;;3.90;1.25;;;18.30;40.50;;;;;;5040599;28;20025;-62
2021/05/03 07:44:00;;;;;;;4.40;1.30;;;17.70;41.70;;;;;;5039863;28;20037;-62
2021/05/03 07:46:26;;;;;;;4.85;1.30;;;17.50;41.70;;;;;;5040111;28;20036;-62
2021/05/03 07:48:58;;;;;;;4.63;1.40;;;16.70;41.30;;;;;;5038612;28;20029;-62
2021/05/03 07:51:24;;;;;;;3.63;1.20;;;15.50;41.40;;;;;;5038464;28;20038;-64
2021/05/03 07:53:52;;;;;;;4.53;1.42;;;15.00;45.10;;;;;;5040444;28;20558;-61
2021/05/03 07:56:19;;;;;;;6.15;1.40;;;15.00;45.00;;;;;;5041943;28;20053;-62
2021/05/03 07:58:46;;;;;;;4.25;1.35;;;14.80;44.30;;;;;;5040059;28;20037;-63
2021/05/03 08:01:13;;;;;;;4.07;1.50;;;15.20;46.80;;;;;;5038572;28;20034;-63
2021/05/03 08:03:41;;;;;;;2.80;1.23;;;17.40;50.60;;;;;;5036786;28;20122;-62
2021/05/03 08:06:12;;;;;;;3.58;1.48;;;18.60;43.90;;;;;;5041758;28;20546;-63
2021/05/03 08:08:38;;;;;;;5.80;1.40;;;18.20;41.80;;;;;;5040757;28;20136;-63
2021/05/03 08:11:04;;;;;;;3.72;1.40;;;18.10;43.70;;;;;;5041502;28;20108;-63
2021/05/03 08:13:30;;;;;;;2.72;1.30;;;18.30;41.90;;;;;;5040732;28;20528;-63
2021/05/03 08:16:00;;;;;;;3.58;1.30;;;17.80;40.90;;;;;;5040768;28;20037;-63
2021/05/03 08:18:27;;;;;;;2.97;1.30;;;16.90;40.30;;;;;;5009649;28;20043;-63
2021/05/03 08:20:54;;;;;;;3.17;1.40;;;15.90;41.10;;;;;;5018979;28;20030;-61
2021/05/03 08:23:21;;;;;;;4.20;1.30;;;15.80;45.10;;;;;;5041142;28;20124;-61
2021/05/03 08:25:48;;;;;;;3.30;1.48;;;17.80;47.10;;;;;;5039810;28;20452;-61
2021/05/03 08:28:15;;;;;;;4.30;1.35;;;19.10;43.80;;;;;;5039144;28;20033;-62
2021/05/03 08:30:41;;;;;;;3.13;1.20;;;20.10;41.50;;;;;;5039395;28;20097;-62
2021/05/03 08:33:07;;;;;;;2.92;1.20;;;19.70;38.70;;;;;;5035401;28;20033;-61
2021/05/03 08:35:33;;;;;;;3.58;1.40;;;18.30;37.30;;;;;;5039622;28;20033;-62
2021/05/03 08:38:00;;;;;;;4.30;1.33;;;17.10;38.60;;;;;;5038957;28;20037;-62
2021/05/03 08:40:26;;;;;;;4.30;1.30;;;18.70;44.40;;;;;;5040988;28;20087;-64
2021/05/03 08:42:53;;;;;;;3.70;1.30;;;22.00;44.50;;;;;;5041577;28;20591;-64
2021/05/03 08:45:20;;;;;;;3.33;1.20;;;24.10;38.90;;;;;;5043047;28;20040;-64
2021/05/03 08:50:48;;;;;;;1.60;1.00;;;22.20;33.90;;;;;;5022638;28;20421;-61
2021/05/03 08:53:18;;;;;;;2.70;1.23;;;20.90;34.40;;;;;;5019778;28;20604;-64
2021/05/03 08:55:45;;;;;;;3.08;1.30;;;19.90;34.90;;;;;;5023740;28;20080;-62
2021/05/03 08:58:11;;;;;;;4.15;1.30;;;18.70;35.20;;;;;;5044971;28;20029;-64
2021/05/03 09:00:37;;;;;;;3.70;1.58;;;17.60;36.30;;;;;;5033032;28;20469;-63
2021/05/03 09:03:10;;;;;;;3.35;1.65;;;16.80;37.50;;;;;;5041303;28;20045;-63
2021/05/03 09:05:37;;;;;;;3.85;1.23;;;16.60;40.00;;;;;;5043596;28;20481;-63
2021/05/03 09:08:03;;;;;;;5.85;1.67;;;16.40;38.80;;;;;;5034918;28;20529;-63
2021/05/03 09:10:30;;;;;;;3.50;1.50;;;16.20;40.40;;;;;;5031956;28;20387;-63
2021/05/03 09:13:13;;;;;;;3.42;1.65;;;16.10;39.90;;;;;;5023306;28;20032;-63
2021/05/03 09:15:40;;;;;;;4.15;1.90;;;15.90;40.50;;;;;;5050076;28;20033;-65
2021/05/03 09:18:06;;;;;;;3.75;1.90;;;15.40;40.20;;;;;;5048325;28;20033;-62
2021/05/03 09:20:34;;;;;;;3.97;1.77;;;14.60;41.00;;;;;;5046550;28;20068;-64
2021/05/03 09:25:47;;;;;;;6.82;2.00;;;13.90;44.70;;;;;;5058312;28;20025;-62
2021/05/03 09:28:14;;;;;;;4.40;1.90;;;14.00;44.90;;;;;;5037018;28;20061;-62
2021/05/03 09:30:44;;;;;;;4.55;1.95;;;13.80;44.10;;;;;;5041036;28;20051;-62
2021/05/03 09:33:14;;;;;;;4.85;2.03;;;13.50;44.90;;;;;;5029864;28;20046;-64
2021/05/03 09:36:07;;;;;;;3.60;1.60;;;13.20;46.00;;;;;;5036377;28;20044;-64
2021/05/03 09:38:38;;;;;;;3.42;1.73;;;12.90;46.40;;;;;;5051635;28;20440;-60
2021/05/03 09:41:23;;;;;;;3.85;1.80;;;12.70;46.30;;;;;;5050339;28;20924;-64
2021/05/03 09:44:07;;;;;;;4.47;1.90;;;12.50;47.20;;;;;;5041166;28;20036;-62
2021/05/03 09:46:35;;;;;;;4.20;1.92;;;12.30;47.40;;;;;;5029041;28;20033;-63
2021/05/03 09:49:07;;;;;;;3.92;1.90;;;12.00;47.60;;;;;;5041097;28;20532;-61
2021/05/03 09:51:41;;;;;;;5.65;2.30;;;11.70;48.70;;;;;;5029402;28;20035;-62
2021/05/03 09:54:25;;;;;;;4.63;2.50;;;11.60;49.50;;;;;;5037783;28;20482;-62
2021/05/03 09:56:57;;;;;;;5.80;2.55;;;11.60;49.60;;;;;;5044234;28;20037;-61
2021/05/03 09:59:48;;;;;;;5.45;2.40;;;11.40;50.30;;;;;;5028001;28;20034;-61
2021/05/03 10:04:50;;;;;;;4.68;2.30;;;11.80;52.90;;;;;;5016679;28;20038;-63
2021/05/03 10:07:18;;;;;;;6.28;2.70;;;12.10;51.50;;;;;;5036809;28;20116;-61
2021/05/03 10:09:49;;;;;;;5.32;2.67;;;12.20;50.90;;;;;;5045706;28;20060;-61
2021/05/03 10:12:17;;;;;;;8.43;2.72;;;12.10;50.80;;;;;;5044833;28;20033;-60
2021/05/03 10:14:45;;;;;;;5.10;2.80;;;12.00;51.50;;;;;;5034267;28;20606;-62
2021/05/03 10:17:14;;;;;;;4.93;2.70;;;11.80;51.00;;;;;;5040732;28;20037;-61
2021/05/03 10:19:42;;;;;;;6.72;3.13;;;11.60;52.20;;;;;;5036090;28;20493;-62
2021/05/03 10:22:31;;;;;;;5.13;2.83;;;12.30;54.00;;;;;;5041149;28;20405;-62
2021/05/03 10:25:01;;;;;;;6.30;3.00;;;14.00;54.40;;;;;;5040739;28;20033;-58
2021/05/03 10:27:28;;;;;;;4.90;2.78;;;16.80;52.90;;;;;;5042876;28;20033;-59
2021/05/03 10:30:06;;;;;;;4.82;2.20;;;17.60;49.60;;;;;;5044704;28;20087;-58
2021/05/03 10:32:34;;;;;;;5.82;2.30;;;18.40;48.00;;;;;;5045925;28;20120;-59
2021/05/03 10:35:02;;;;;;;4.38;2.53;;;18.60;44.30;;;;;;5038424;28;20609;-59
2021/05/03 10:37:34;;;;;;;4.43;2.40;;;18.00;42.50;;;;;;5045078;28;20036;-60
2021/05/03 10:40:24;;;;;;;4.40;2.63;;;17.00;42.30;;;;;;5038819;28;20540;-58
2021/05/03 10:43:02;;;;;;;3.85;2.25;;;16.60;44.20;;;;;;5024116;28;20052;-58
2021/05/03 10:46:04;;;;;;;4.30;2.28;;;19.50;47.00;;;;;;5039504;28;20117;-58
2021/05/03 10:49:18;;;;;;;4.72;1.95;;;20.30;42.00;;;;;;5030912;28;20096;-61
2021/05/03 10:56:51;;;;;;;2.95;1.60;;;25.80;34.70;;;;;;5039252;28;20038;-60
2021/05/03 10:59:17;;;;;;;4.22;1.70;;;23.70;32.90;;;;;;5040558;28;20091;-60
2021/05/03 11:01:52;;;;;;;3.05;1.60;;;21.30;33.20;;;;;;5039012;28;20021;-58
2021/05/03 11:04:25;;;;;;;3.97;2.00;;;19.20;35.30;;;;;;5039275;28;20472;-58
2021/05/03 11:06:50;;;;;;;3.30;1.92;;;18.50;39.10;;;;;;5039146;28;20083;-60
2021/05/03 11:09:32;;;;;;;4.60;2.38;;;19.50;39.50;;;;;;5039867;28;20040;-63
2021/05/03 11:12:05;;;;;;;4.10;2.30;;;19.40;37.00;;;;;;5040008;28;20021;-63
2021/05/03 11:14:32;;;;;;;4.55;2.65;;;18.60;36.50;;;;;;5038222;28;20029;-58
2021/05/03 11:17:02;;;;;;;3.92;2.40;;;17.60;37.30;;;;;;5039847;28;20029;-62
2021/05/03 11:19:37;;;;;;;4.75;2.67;;;16.80;38.10;;;;;;5039534;28;20516;-63
2021/05/03 11:22:07;;;;;;;4.70;2.88;;;16.10;39.50;;;;;;5039734;28;20451;-62
2021/05/03 11:24:40;;;;;;;5.38;3.10;;;15.60;40.30;;;;;;5038241;28;20082;-64
2021/05/03 11:29:40;;;;;;;6.00;2.97;;;15.40;42.50;;;;;;5040339;28;20071;-62
2021/05/03 11:32:07;;;;;;;4.97;3.20;;;15.40;41.80;;;;;;5042784;28;20071;-63
2021/05/03 11:34:38;;;;;;;5.95;3.60;;;15.00;41.40;;;;;;5037214;28;20528;-63
2021/05/03 11:37:06;;;;;;;5.40;3.63;;;14.40;42.30;;;;;;5039955;28;20464;-64
2021/05/03 11:44:55;;;;;;;7.68;3.70;;;13.30;45.80;;;;;;5039989;28;20092;-63
2021/05/03 11:47:31;;;;;;;6.15;3.40;;;13.20;46.00;;;;;;5032860;28;20031;-62
2021/05/03 11:49:58;;;;;;;5.82;3.60;;;13.30;47.00;;;;;;5049398;28;20040;-63
2021/05/03 11:52:34;;;;;;;6.57;3.50;;;13.70;47.10;;;;;;5050441;28;20041;-59
2021/05/03 11:55:11;;;;;;;5.95;3.40;;;13.90;46.50;;;;;;5028508;28;20037;-62
2021/05/03 11:57:45;;;;;;;5.70;3.70;;;13.80;45.90;;;;;;5038852;28;20037;-62
2021/05/03 12:00:14;;;;;;;6.70;4.25;;;13.70;46.00;;;;;;5045479;28;20041;-62
2021/05/03 12:02:41;;;;;;;6.50;4.43;;;13.30;46.00;;;;;;5034939;28;20029;-62
2021/05/03 12:05:13;;;;;;;6.82;4.40;;;12.80;46.90;;;;;;5029575;28;20041;-61
2021/05/03 12:07:40;;;;;;;7.03;4.47;;;12.60;47.90;;;;;;5029753;28;20497;-62
2021/05/03 12:10:14;;;;;;;6.78;4.80;;;12.50;48.60;;;;;;5040037;28;20076;-64
2021/05/03 12:12:48;;;;;;;6.63;4.63;;;12.60;49.50;;;;;;5037949;28;20448;-63
2021/05/03 12:15:22;;;;;;;6.80;4.90;;;12.70;49.60;;;;;;5030456;28;20083;-62
2021/05/03 12:17:49;;;;;;;7.18;4.93;;;12.90;50.30;;;;;;5034042;28;20038;-63
2021/05/03 12:20:18;;;;;;;7.72;4.90;;;13.50;50.70;;;;;;5041697;28;20045;-62
2021/05/03 12:23:02;;;;;;;8.02;4.63;;;13.90;49.30;;;;;;5050727;28;20053;-62
2021/05/03 12:25:59;;;;;;;6.80;4.53;;;14.00;48.20;;;;;;5044150;28;20072;-63
2021/05/03 12:28:28;;;;;;;6.47;4.57;;;14.00;48.50;;;;;;5041309;28;24641;-62
2021/05/03 12:30:59;;;;;;;8.90;5.07;;;14.10;48.40;;;;;;5028157;28;20137;-63
2021/05/03 12:33:26;;;;;;;7.68;5.10;;;14.10;48.60;;;;;;5019641;28;20041;-63
2021/05/03 12:35:58;;;;;;;7.28;4.38;;;14.70;49.30;;;;;;5028420;28;20037;-64
2021/05/03 12:38:28;;;;;;;7.22;4.68;;;15.30;48.60;;;;;;5024063;28;20049;-62
2021/05/03 12:40:56;;;;;;;7.93;5.10;;;15.50;46.90;;;;;;5024524;28;20137;-62
2021/05/03 12:56:43;;;;;;;;;;;14.20;48.60;;;;;;5046934;28;20048;-61
2021/05/03 13:06:59;;;;;;;9.98;6.35;;;15.20;47.30;;;;;;5035629;28;20029;-61
2021/05/03 13:29:12;;;;;;;8.18;6.32;;;15.70;45.50;;;;;;5049024;28;20575;-64
2021/05/03 13:31:40;;;;;;;8.70;6.53;;;15.40;45.70;;;;;;5034979;28;20057;-63
2021/05/03 13:34:08;;;;;;;9.43;6.45;;;15.20;46.20;;;;;;5043845;28;20503;-63
2021/05/03 13:36:34;;;;;;;10.27;6.95;;;14.90;46.10;;;;;;5041644;28;20543;-61
2021/05/03 13:39:01;;;;;;;10.20;6.53;;;14.80;47.20;;;;;;5031715;28;20033;-62
2021/05/03 13:41:27;;;;;;;8.35;6.25;;;14.80;47.60;;;;;;5041979;28;20049;-62
2021/05/03 13:43:53;;;;;;;9.73;6.20;;;14.90;47.20;;;;;;5047462;28;20067;-62
2021/05/03 13:46:19;;;;;;;8.60;6.30;;;14.80;47.40;;;;;;5052195;28;20041;-61
2021/05/03 13:48:46;;;;;;;9.32;5.97;;;14.80;47.20;;;;;;5051013;28;20509;-63
2021/05/03 13:51:12;;;;;;;10.57;6.22;;;14.70;47.10;;;;;;5047155;28;20049;-58
2021/05/03 13:53:38;;;;;;;11.30;6.20;;;14.90;48.10;;;;;;5030312;28;20034;-60
2021/05/03 13:56:05;;;;;;;8.50;5.97;;;15.20;48.10;;;;;;5035707;28;20038;-60
2021/05/03 13:58:31;;;;;;;8.95;6.63;;;15.50;47.10;;;;;;5032940;28;20030;-60
2021/05/03 14:00:58;;;;;;;10.15;6.53;;;15.60;46.20;;;;;;5043583;28;20148;-59
2021/05/03 14:03:24;;;;;;;9.00;6.38;;;15.40;45.40;;;;;;5042317;28;20124;-58
2021/05/03 14:05:50;;;;;;;8.75;6.88;;;15.20;46.30;;;;;;5040586;28;20116;-59
2021/05/03 14:08:16;;;;;;;9.40;6.90;;;14.90;46.00;;;;;;5043602;28;20038;-59
2021/05/03 14:10:42;;;;;;;9.48;7.32;;;14.70;47.10;;;;;;5040258;28;20103;-59
2021/05/03 14:13:08;;;;;;;11.93;7.45;;;14.80;48.00;;;;;;5040520;28;20037;-58